createdAt,value
2023-01-31T00:03:40.574Z,1.07
2023-01-31T00:08:44.953Z,0.80
2023-01-31T00:13:50.033Z,0.83
2023-01-31T00:18:53.459Z,0.70
2023-01-31T00:23:58.541Z,0.80
2023-01-31T00:29:05.125Z,0.60
2023-01-31T00:34:08.834Z,0.77
2023-01-31T00:39:12.650Z,0.90
2023-01-31T00:44:17.493Z,1.03
2023-01-31T00:49:20.820Z,1.00
2023-01-31T00:54:24.212Z,0.77
2023-01-31T00:59:29.286Z,0.83
2023-01-31T01:04:32.949Z,0.80
2023-01-31T01:09:36.361Z,0.80
2023-01-31T01:14:41.146Z,0.70
2023-01-31T01:19:44.554Z,0.50
2023-01-31T01:24:48.283Z,0.50
2023-01-31T01:29:53.103Z,0.70
2023-01-31T01:34:56.481Z,0.60
2023-01-31T01:40:00.014Z,0.63
2023-01-31T01:45:16.000Z,0.67
2023-01-31T01:50:26.343Z,0.30
2023-01-31T01:55:33.730Z,0.70
2023-01-31T02:00:39.671Z,0.50
2023-01-31T02:05:46.360Z,0.57
2023-01-31T02:10:53.743Z,0.40
2023-01-31T02:15:59.279Z,0.50
2023-01-31T02:21:35.217Z,1.13
2023-01-31T02:27:17.215Z,1.00
2023-01-31T02:32:43.489Z,1.07
2023-01-31T02:37:58.835Z,0.97
2023-01-31T02:43:08.167Z,1.10
2023-01-31T02:48:20.854Z,1.00
2023-01-31T02:53:27.467Z,0.90
2023-01-31T02:58:35.451Z,0.73
2023-01-31T03:03:40.683Z,1.77
2023-01-31T03:08:46.366Z,1.60
2023-01-31T03:14:02.913Z,1.77
2023-01-31T03:19:17.418Z,1.33
2023-01-31T03:24:22.207Z,1.47
2023-01-31T03:29:27.657Z,1.90
2023-01-31T03:34:33.083Z,1.20
2023-01-31T03:39:41.482Z,1.30
2023-01-31T03:44:52.226Z,1.00
2023-01-31T03:50:00.011Z,0.80
2023-01-31T03:55:09.466Z,1.40
2023-01-31T04:00:16.666Z,1.53
2023-01-31T04:05:25.257Z,0.90
2023-01-31T04:10:28.790Z,1.30
2023-01-31T04:15:32.248Z,1.47
2023-01-31T04:20:37.140Z,1.30
2023-01-31T04:25:40.542Z,1.80
2023-01-31T04:30:43.945Z,1.70
2023-01-31T04:35:48.873Z,2.10
2023-01-31T04:40:52.282Z,1.40
2023-01-31T04:45:55.750Z,1.67
2023-01-31T04:51:00.729Z,1.60
2023-01-31T04:56:08.251Z,1.77
2023-01-31T05:01:11.725Z,1.70
2023-01-31T05:06:16.757Z,1.53
2023-01-31T05:11:20.546Z,1.80
2023-01-31T05:16:24.008Z,1.77
2023-01-31T05:21:28.999Z,1.73
2023-01-31T05:26:32.522Z,1.70
2023-01-31T05:31:36.120Z,2.70
2023-01-31T05:36:40.922Z,1.63
2023-01-31T05:41:44.273Z,1.83
2023-01-31T05:46:47.818Z,1.67
2023-01-31T05:51:52.572Z,1.30
2023-01-31T05:56:55.965Z,1.30
2023-01-31T06:01:59.802Z,1.40
2023-01-31T06:07:05.257Z,1.07
2023-01-31T06:12:13.500Z,1.20
2023-01-31T06:17:16.881Z,1.27
2023-01-31T06:22:21.794Z,1.53
2023-01-31T06:27:25.132Z,1.67
2023-01-31T06:32:28.593Z,2.77
2023-01-31T06:37:33.425Z,2.80
2023-01-31T06:42:36.865Z,3.30
2023-01-31T06:47:40.278Z,2.87
2023-01-31T06:52:45.511Z,2.10
2023-01-31T06:57:49.480Z,3.30
2023-01-31T07:02:54.414Z,3.53
2023-01-31T07:08:00.248Z,3.50
2023-01-31T07:13:03.711Z,3.23
2023-01-31T07:18:07.529Z,3.00
2023-01-31T07:23:12.373Z,2.40
2023-01-31T07:28:15.799Z,15.13
2023-01-31T07:33:19.373Z,2.67
2023-01-31T07:38:24.258Z,3.53
2023-01-31T07:43:28.165Z,3.97
2023-01-31T07:48:31.899Z,3.77
2023-01-31T07:53:42.086Z,3.90
2023-01-31T07:58:47.402Z,3.80
2023-01-31T08:03:51.059Z,3.70
2023-01-31T08:08:55.902Z,3.37
2023-01-31T08:13:59.432Z,3.57
2023-01-31T08:19:02.960Z,3.57
2023-01-31T08:24:08.607Z,3.00
2023-01-31T08:29:12.123Z,7.33
2023-01-31T08:34:15.548Z,3.00
2023-01-31T08:39:20.520Z,4.17
2023-01-31T08:44:24.003Z,5.40
2023-01-31T08:49:27.461Z,4.70
2023-01-31T08:54:32.545Z,5.17
2023-01-31T08:59:35.964Z,5.43
2023-01-31T09:04:39.443Z,4.67
2023-01-31T09:09:44.392Z,3.77
2023-01-31T09:14:47.885Z,3.90
2023-01-31T09:19:51.498Z,3.37
2023-01-31T09:24:56.439Z,5.23
2023-01-31T09:30:00.226Z,4.80
2023-01-31T09:35:03.843Z,5.37
2023-01-31T09:40:09.651Z,4.60
2023-01-31T09:45:16.711Z,4.23
2023-01-31T09:50:23.748Z,3.40
2023-01-31T09:55:36.858Z,4.17
2023-01-31T10:00:49.132Z,2.83
2023-01-31T10:05:56.803Z,4.90
2023-01-31T10:11:04.210Z,2.40
2023-01-31T10:16:16.585Z,2.50
2023-01-31T10:21:24.265Z,1.30
2023-01-31T10:26:31.779Z,1.87
2023-01-31T10:31:43.847Z,1.67
2023-01-31T10:36:54.565Z,1.23
2023-01-31T10:42:27.811Z,1.20
2023-01-31T10:47:34.673Z,0.80
2023-01-31T10:52:54.547Z,0.80
2023-01-31T10:58:00.304Z,0.93
2023-01-31T11:03:03.777Z,0.80
2023-01-31T11:08:26.367Z,0.87
2023-01-31T11:13:31.325Z,0.70
2023-01-31T11:18:38.409Z,0.60
2023-01-31T11:23:44.930Z,0.70
2023-01-31T11:28:53.784Z,0.60
2023-01-31T11:34:02.479Z,0.80
2023-01-31T11:39:27.665Z,0.80
2023-01-31T11:44:32.495Z,1.20
2023-01-31T11:49:38.417Z,2.10
2023-01-31T11:54:45.145Z,1.70
2023-01-31T11:59:52.763Z,1.67
2023-01-31T12:04:57.165Z,1.30
2023-01-31T12:10:00.583Z,1.20
2023-01-31T12:15:16.800Z,1.17
2023-01-31T12:20:29.153Z,1.10
2023-01-31T12:25:47.619Z,0.77
2023-01-31T12:31:10.739Z,1.10
2023-01-31T12:36:34.943Z,1.37
2023-01-31T12:41:42.162Z,1.10
2023-01-31T12:47:10.996Z,1.00
2023-01-31T12:52:22.607Z,1.10
2023-01-31T12:57:35.234Z,1.57
2023-01-31T13:02:55.785Z,1.80
2023-01-31T13:08:05.002Z,1.77
2023-01-31T13:13:15.843Z,1.40
2023-01-31T13:18:21.715Z,1.43
2023-01-31T13:23:31.768Z,1.53
2023-01-31T13:28:41.325Z,1.40
2023-01-31T13:33:52.152Z,1.90
2023-01-31T13:38:55.877Z,1.60
2023-01-31T13:44:00.252Z,2.00
2023-01-31T13:49:08.139Z,1.60
2023-01-31T13:54:18.241Z,1.10
2023-01-31T13:59:25.199Z,3.13
2023-01-31T14:04:39.136Z,2.00
2023-01-31T14:09:46.917Z,1.33
2023-01-31T14:14:51.611Z,1.60
2023-01-31T14:20:27.726Z,1.87
2023-01-31T14:25:42.723Z,1.70
2023-01-31T14:30:48.243Z,1.50
2023-01-31T14:36:05.217Z,2.00
2023-01-31T14:41:17.525Z,2.10
2023-01-31T14:46:45.966Z,2.30
2023-01-31T14:52:14.978Z,2.20
2023-01-31T14:57:22.026Z,2.27
2023-01-31T15:02:52.577Z,1.97
2023-01-31T15:08:02.546Z,1.40
2023-01-31T15:13:33.598Z,1.60
2023-01-31T15:18:37.929Z,1.80
2023-01-31T15:23:44.563Z,1.70
2023-01-31T15:28:48.684Z,1.60
2023-01-31T15:33:54.725Z,2.07
2023-01-31T15:39:02.856Z,2.03
2023-01-31T15:44:19.662Z,1.50
2023-01-31T15:49:38.516Z,1.53
2023-01-31T15:54:55.989Z,1.80
2023-01-31T15:59:59.877Z,1.73
2023-01-31T16:05:07.459Z,2.03
2023-01-31T16:10:16.996Z,1.50
2023-01-31T16:15:24.185Z,2.27
2023-01-31T16:20:39.230Z,2.40
2023-01-31T16:25:54.610Z,1.80
2023-01-31T16:31:07.570Z,2.10
2023-01-31T16:36:16.586Z,1.60
2023-01-31T16:41:40.461Z,1.30
2023-01-31T16:46:46.972Z,1.10
2023-01-31T16:51:52.461Z,2.00
2023-01-31T16:57:23.564Z,2.20
2023-01-31T17:02:30.091Z,2.23
2023-01-31T17:07:36.148Z,2.20
2023-01-31T17:12:42.621Z,1.87
2023-01-31T17:17:47.229Z,10.23
2023-01-31T17:23:02.230Z,3.00
2023-01-31T17:28:08.692Z,3.63
2023-01-31T17:33:19.093Z,2.67
2023-01-31T17:38:23.289Z,4.00
2023-01-31T17:43:29.312Z,2.80
2023-01-31T17:48:34.367Z,2.00
2023-01-31T17:53:48.704Z,3.17
2023-01-31T17:58:55.425Z,3.60
2023-01-31T18:04:01.270Z,3.80
2023-01-31T18:09:09.154Z,3.50
2023-01-31T18:14:18.137Z,2.97
2023-01-31T18:19:23.989Z,2.80
2023-01-31T18:24:29.218Z,2.60
2023-01-31T18:29:36.523Z,2.40
2023-01-31T18:34:45.039Z,1.90
2023-01-31T18:39:51.564Z,1.87
2023-01-31T18:45:00.653Z,2.10
2023-01-31T18:50:06.072Z,1.90
2023-01-31T18:55:14.399Z,2.93
2023-01-31T19:00:21.945Z,3.10
2023-01-31T19:05:29.908Z,3.73
2023-01-31T19:10:35.074Z,3.03
2023-01-31T19:15:41.768Z,4.10
2023-01-31T19:20:47.375Z,2.27
2023-01-31T19:25:51.798Z,2.53
2023-01-31T19:31:05.635Z,2.37
2023-01-31T19:36:17.502Z,2.50
2023-01-31T19:41:26.911Z,2.23
2023-01-31T19:46:34.676Z,2.10
2023-01-31T19:51:40.240Z,2.10
2023-01-31T19:56:45.730Z,2.40
2023-01-31T20:01:52.616Z,3.03
2023-01-31T20:06:57.811Z,4.73
2023-01-31T20:12:02.514Z,5.27
2023-01-31T20:17:09.026Z,4.60
2023-01-31T20:22:16.270Z,4.30
2023-01-31T20:27:22.142Z,4.10
2023-01-31T20:32:28.703Z,3.90
2023-01-31T20:37:34.137Z,3.40
2023-01-31T20:42:39.127Z,3.40
2023-01-31T20:47:47.102Z,3.77
2023-01-31T20:52:52.944Z,4.30
2023-01-31T20:57:58.733Z,6.27
2023-01-31T21:03:04.866Z,5.20
2023-01-31T21:08:13.293Z,4.83
2023-01-31T21:13:18.439Z,4.03
2023-01-31T21:18:26.763Z,4.57
2023-01-31T21:23:30.455Z,4.10
2023-01-31T21:28:34.670Z,4.90
2023-01-31T21:33:42.007Z,4.37
2023-01-31T21:38:46.004Z,2.77
2023-01-31T21:43:49.833Z,2.53
2023-01-31T21:48:54.841Z,2.20
2023-01-31T21:53:58.432Z,2.07
2023-01-31T21:59:01.838Z,3.10
2023-01-31T22:04:06.890Z,2.80
2023-01-31T22:09:13.080Z,3.57
2023-01-31T22:14:18.058Z,2.93
2023-01-31T22:19:22.948Z,2.40
2023-01-31T22:24:26.384Z,1.90
2023-01-31T22:29:29.840Z,3.00
2023-01-31T22:34:34.728Z,3.70
2023-01-31T22:39:38.156Z,4.87
2023-01-31T22:44:41.576Z,4.47
2023-01-31T22:49:46.427Z,3.77
2023-01-31T22:54:49.705Z,5.00
2023-01-31T22:59:53.051Z,4.17
2023-01-31T23:04:58.405Z,4.73
2023-01-31T23:10:01.796Z,4.13
2023-01-31T23:15:05.600Z,4.50
2023-01-31T23:20:13.206Z,5.00
2023-01-31T23:25:16.651Z,4.97
2023-01-31T23:30:22.934Z,4.67
2023-01-31T23:35:27.939Z,4.10
2023-01-31T23:40:31.301Z,4.00
2023-01-31T23:45:34.790Z,4.60
2023-01-31T23:50:40.429Z,4.43
2023-01-31T23:55:43.763Z,4.77
